createdAt,value
2022-07-28T00:01:00.753Z,17.73
2022-07-28T00:03:28.442Z,17.66
2022-07-28T00:05:56.028Z,17.69
2022-07-28T00:08:23.573Z,17.67
2022-07-28T00:10:52.454Z,17.67
2022-07-28T00:13:20.037Z,17.63
2022-07-28T00:15:47.699Z,17.52
2022-07-28T00:18:15.395Z,17.57
2022-07-28T00:20:43.002Z,17.41
2022-07-28T00:23:10.515Z,17.39
2022-07-28T00:25:38.208Z,17.38
2022-07-28T00:28:07.205Z,17.39
2022-07-28T00:30:34.662Z,17.34
2022-07-28T00:33:02.377Z,17.37
2022-07-28T00:35:32.253Z,17.26
2022-07-28T00:38:00.362Z,17.28
2022-07-28T00:40:42.950Z,17.28
2022-07-28T00:43:11.812Z,17.25
2022-07-28T00:45:39.490Z,17.25
2022-07-28T00:48:07.230Z,17.26
2022-07-28T00:50:34.910Z,17.21
2022-07-28T00:53:02.971Z,17.31
2022-07-28T00:55:32.304Z,17.25
2022-07-28T00:58:21.083Z,17.19
2022-07-28T01:00:48.529Z,17.18
2022-07-28T01:03:16.155Z,17.17
2022-07-28T01:05:48.704Z,17.16
2022-07-28T01:08:22.939Z,17.05
2022-07-28T01:10:57.313Z,17.05
2022-07-28T01:13:33.278Z,16.99
2022-07-28T01:16:04.323Z,17.00
2022-07-28T01:18:35.150Z,16.95
2022-07-28T01:21:05.047Z,16.90
2022-07-28T01:24:04.758Z,16.90
2022-07-28T01:26:44.155Z,16.88
2022-07-28T01:29:22.730Z,16.84
2022-07-28T01:31:55.490Z,16.78
2022-07-28T01:34:28.730Z,16.76
2022-07-28T01:36:59.264Z,16.84
2022-07-28T01:39:30.264Z,16.83
2022-07-28T01:41:59.106Z,16.86
2022-07-28T01:44:27.876Z,16.86
2022-07-28T01:46:58.646Z,16.81
2022-07-28T01:49:27.520Z,16.68
2022-07-28T01:51:57.441Z,16.69
2022-07-28T01:54:28.352Z,16.67
2022-07-28T01:56:57.018Z,16.66
2022-07-28T01:59:25.550Z,16.63
2022-07-28T02:01:53.422Z,16.69
2022-07-28T02:04:23.943Z,16.65
2022-07-28T02:06:52.398Z,16.63
2022-07-28T02:09:20.750Z,16.54
2022-07-28T02:11:50.067Z,16.59
2022-07-28T02:14:19.164Z,16.53
2022-07-28T02:16:49.655Z,16.63
2022-07-28T02:19:18.577Z,16.54
2022-07-28T02:21:48.501Z,16.51
2022-07-28T02:24:18.329Z,16.41
2022-07-28T02:26:51.095Z,16.37
2022-07-28T02:29:48.173Z,16.31
2022-07-28T02:32:12.437Z,16.37
2022-07-28T02:34:58.007Z,16.36
2022-07-28T02:37:27.368Z,16.31
2022-07-28T02:40:00.575Z,16.26
2022-07-28T02:42:29.907Z,16.25
2022-07-28T02:44:59.618Z,16.27
2022-07-28T02:47:29.592Z,16.25
2022-07-28T02:49:59.582Z,16.23
2022-07-28T02:52:29.190Z,16.18
2022-07-28T02:54:58.815Z,16.18
2022-07-28T02:57:26.929Z,16.19
2022-07-28T02:59:55.261Z,16.14
2022-07-28T03:02:23.252Z,16.10
2022-07-28T03:05:01.754Z,16.08
2022-07-28T03:07:32.389Z,16.04
2022-07-28T03:10:00.610Z,15.92
2022-07-28T03:12:28.178Z,15.87
2022-07-28T03:14:56.140Z,15.83
2022-07-28T03:17:23.667Z,15.81
2022-07-28T03:19:51.186Z,15.84
2022-07-28T03:22:18.753Z,15.78
2022-07-28T03:24:51.765Z,15.79
2022-07-28T03:27:22.818Z,15.76
2022-07-28T03:29:53.417Z,15.75
2022-07-28T03:32:22.578Z,15.69
2022-07-28T03:34:52.344Z,15.71
2022-07-28T03:37:24.400Z,15.85
2022-07-28T03:39:56.159Z,15.80
2022-07-28T03:42:23.943Z,15.85
2022-07-28T03:44:51.624Z,15.78
2022-07-28T03:47:22.812Z,15.83
2022-07-28T03:49:50.946Z,15.79
2022-07-28T03:52:19.032Z,15.81
2022-07-28T03:54:46.993Z,15.73
2022-07-28T03:57:16.075Z,15.76
2022-07-28T03:59:43.578Z,15.85
2022-07-28T04:02:11.137Z,15.83
2022-07-28T04:04:38.907Z,15.80
2022-07-28T04:07:06.400Z,15.71
2022-07-28T04:09:35.515Z,15.69
2022-07-28T04:12:03.000Z,15.71
2022-07-28T04:14:31.815Z,15.82
2022-07-28T04:16:59.333Z,15.77
2022-07-28T04:19:27.057Z,15.71
2022-07-28T04:21:54.549Z,15.77
2022-07-28T04:24:22.332Z,15.76
2022-07-28T04:26:49.809Z,15.80
2022-07-28T04:29:23.425Z,15.82
2022-07-28T04:31:56.189Z,15.82
2022-07-28T04:34:24.124Z,15.79
2022-07-28T04:36:52.092Z,15.81
2022-07-28T04:39:19.585Z,15.88
2022-07-28T04:41:47.061Z,15.95
2022-07-28T04:44:14.946Z,15.91
2022-07-28T04:46:42.737Z,16.03
2022-07-28T04:49:11.643Z,16.05
2022-07-28T04:51:39.193Z,16.04
2022-07-28T04:54:06.730Z,16.05
2022-07-28T04:56:34.202Z,16.02
2022-07-28T04:59:01.845Z,15.95
2022-07-28T05:01:31.415Z,15.97
2022-07-28T05:03:58.908Z,16.03
2022-07-28T05:06:27.792Z,16.05
2022-07-28T05:08:55.225Z,16.02
2022-07-28T05:11:22.680Z,16.15
2022-07-28T05:13:50.149Z,16.12
2022-07-28T05:16:17.662Z,16.18
2022-07-28T05:18:45.141Z,16.10
2022-07-28T05:21:12.733Z,16.09
2022-07-28T05:23:47.492Z,16.14
2022-07-28T05:26:15.588Z,16.19
2022-07-28T05:28:43.078Z,16.19
2022-07-28T05:31:10.562Z,16.22
2022-07-28T05:33:38.472Z,16.29
2022-07-28T05:36:06.770Z,16.37
2022-07-28T05:38:34.229Z,16.38
2022-07-28T05:41:03.000Z,16.51
2022-07-28T05:43:30.486Z,16.53
2022-07-28T05:45:57.999Z,16.61
2022-07-28T05:48:25.519Z,16.55
2022-07-28T05:50:54.312Z,16.58
2022-07-28T05:53:22.530Z,16.61
2022-07-28T05:56:00.813Z,16.64
2022-07-28T05:58:31.398Z,16.71
2022-07-28T06:01:00.802Z,16.81
2022-07-28T06:03:30.458Z,16.86
2022-07-28T06:05:58.352Z,16.94
2022-07-28T06:08:42.018Z,16.93
2022-07-28T06:11:11.404Z,16.99
2022-07-28T06:13:40.499Z,17.03
2022-07-28T06:16:13.159Z,17.03
2022-07-28T06:18:40.988Z,17.00
2022-07-28T06:21:08.630Z,16.99
2022-07-28T06:23:36.218Z,17.04
2022-07-28T06:26:03.955Z,17.09
2022-07-28T06:28:32.363Z,17.21
2022-07-28T06:31:01.244Z,17.30
2022-07-28T06:33:28.837Z,17.36
2022-07-28T06:35:57.809Z,17.57
2022-07-28T06:38:25.770Z,17.59
2022-07-28T06:40:53.445Z,17.64
2022-07-28T06:43:21.054Z,17.68
2022-07-28T06:45:48.669Z,17.72
2022-07-28T06:48:18.809Z,17.91
2022-07-28T06:50:46.374Z,17.98
2022-07-28T06:53:14.005Z,17.98
2022-07-28T06:55:41.573Z,18.00
2022-07-28T06:58:09.191Z,18.14
2022-07-28T07:00:36.789Z,18.21
2022-07-28T07:03:04.550Z,18.32
2022-07-28T07:05:33.410Z,18.31
2022-07-28T07:08:00.995Z,18.35
2022-07-28T07:10:28.556Z,18.40
2022-07-28T07:12:56.189Z,18.55
2022-07-28T07:15:23.783Z,18.65
2022-07-28T07:17:51.345Z,18.67
2022-07-28T07:20:18.986Z,18.73
2022-07-28T07:22:48.473Z,18.70
2022-07-28T07:25:17.802Z,18.76
2022-07-28T07:27:45.685Z,18.75
2022-07-28T07:30:14.670Z,18.85
2022-07-28T07:32:42.416Z,18.93
2022-07-28T07:35:10.441Z,19.01
2022-07-28T07:37:37.934Z,19.09
2022-07-28T07:40:08.452Z,19.13
2022-07-28T07:42:36.005Z,19.20
2022-07-28T07:45:03.605Z,19.19
2022-07-28T07:47:31.232Z,19.30
2022-07-28T07:50:00.069Z,19.23
2022-07-28T07:52:29.314Z,19.18
2022-07-28T07:54:56.819Z,19.22
2022-07-28T07:57:25.689Z,19.24
2022-07-28T07:59:53.264Z,19.35
2022-07-28T08:02:20.790Z,19.40
2022-07-28T08:04:48.319Z,19.51
2022-07-28T08:07:16.035Z,19.59
2022-07-28T08:09:43.502Z,19.69
2022-07-28T08:12:11.020Z,19.81
2022-07-28T08:14:39.898Z,19.87
2022-07-28T08:17:08.862Z,20.06
2022-07-28T08:19:36.366Z,20.17
2022-07-28T08:22:03.869Z,20.22
2022-07-28T08:24:33.279Z,20.10
2022-07-28T08:27:01.462Z,20.23
2022-07-28T08:29:28.969Z,20.22
2022-07-28T08:31:58.214Z,20.38
2022-07-28T08:34:31.285Z,20.49
2022-07-28T08:37:02.434Z,20.32
2022-07-28T08:39:30.203Z,20.51
2022-07-28T08:42:03.298Z,20.72
2022-07-28T08:44:41.837Z,20.65
2022-07-28T08:47:12.444Z,20.91
2022-07-28T08:49:42.258Z,20.93
2022-07-28T08:52:11.699Z,21.01
2022-07-28T08:54:42.793Z,21.14
2022-07-28T08:57:11.771Z,21.33
2022-07-28T08:59:39.835Z,21.39
2022-07-28T09:02:11.819Z,21.47
2022-07-28T09:04:39.921Z,21.50
2022-07-28T09:07:07.432Z,21.62
2022-07-28T09:09:35.137Z,21.67
2022-07-28T09:12:05.364Z,21.76
2022-07-28T09:14:33.762Z,21.78
2022-07-28T09:17:02.009Z,21.89
2022-07-28T09:19:34.289Z,21.91
2022-07-28T09:22:03.530Z,22.05
2022-07-28T09:24:35.444Z,22.14
2022-07-28T09:27:06.632Z,22.19
2022-07-28T09:29:35.846Z,22.13
2022-07-28T09:32:04.042Z,22.24
2022-07-28T09:34:40.468Z,22.41
2022-07-28T09:37:08.593Z,22.54
2022-07-28T09:39:38.051Z,22.66
2022-07-28T09:42:05.981Z,22.65
2022-07-28T09:44:33.587Z,22.80
2022-07-28T09:47:01.321Z,22.88
2022-07-28T09:49:43.498Z,22.91
2022-07-28T09:52:12.322Z,23.07
2022-07-28T09:54:41.176Z,23.07
2022-07-28T09:57:11.675Z,23.07
2022-07-28T09:59:50.493Z,23.16
2022-07-28T10:02:25.452Z,23.31
2022-07-28T10:04:55.493Z,23.37
2022-07-28T10:07:23.218Z,23.43
2022-07-28T10:09:58.163Z,23.64
2022-07-28T10:12:26.667Z,23.71
2022-07-28T10:14:56.168Z,23.81
2022-07-28T10:17:25.133Z,24.00
2022-07-28T10:19:54.358Z,23.96
2022-07-28T10:22:24.331Z,23.98
2022-07-28T10:24:53.962Z,24.05
2022-07-28T10:27:23.192Z,24.15
2022-07-28T10:29:55.797Z,24.32
2022-07-28T10:32:23.793Z,24.41
2022-07-28T10:34:52.984Z,24.49
2022-07-28T10:37:24.399Z,24.49
2022-07-28T10:39:58.717Z,24.63
2022-07-28T10:42:26.361Z,24.53
2022-07-28T10:44:54.022Z,24.55
2022-07-28T10:47:23.364Z,24.64
2022-07-28T10:49:51.903Z,24.69
2022-07-28T10:52:46.158Z,24.87
2022-07-28T10:55:20.450Z,24.98
2022-07-28T10:58:02.046Z,25.01
2022-07-28T11:00:55.416Z,25.06
2022-07-28T11:03:38.237Z,25.08
2022-07-28T11:06:27.417Z,25.16
2022-07-28T11:08:55.193Z,24.98
2022-07-28T11:11:46.608Z,24.97
2022-07-28T11:14:33.546Z,25.14
2022-07-28T11:17:23.936Z,25.13
2022-07-28T11:22:45.866Z,25.48
2022-07-28T11:25:18.646Z,25.77
2022-07-28T11:28:04.456Z,25.67
2022-07-28T11:30:55.220Z,25.77
2022-07-28T11:33:24.712Z,25.83
2022-07-28T11:35:56.988Z,25.79
2022-07-28T11:38:25.051Z,25.84
2022-07-28T11:40:54.112Z,26.07
2022-07-28T11:43:38.879Z,25.97
2022-07-28T11:46:37.520Z,26.06
2022-07-28T11:49:16.644Z,25.99
2022-07-28T11:52:15.371Z,25.87
2022-07-28T11:54:49.111Z,25.82
2022-07-28T11:57:19.534Z,25.86
2022-07-28T11:59:50.693Z,25.81
2022-07-28T12:02:19.726Z,25.87
2022-07-28T12:04:55.879Z,25.90
2022-07-28T12:07:29.032Z,26.07
2022-07-28T12:09:58.407Z,26.16
2022-07-28T12:12:28.025Z,26.35
2022-07-28T12:15:00.992Z,26.35
2022-07-28T12:17:35.625Z,26.40
2022-07-28T12:20:05.779Z,26.42
2022-07-28T12:22:39.113Z,26.50
2022-07-28T12:25:13.440Z,26.68
2022-07-28T12:27:41.516Z,26.89
2022-07-28T12:30:22.378Z,27.03
2022-07-28T12:32:52.864Z,27.13
2022-07-28T12:35:21.227Z,27.11
2022-07-28T12:37:49.900Z,27.20
2022-07-28T12:40:18.568Z,27.20
2022-07-28T12:42:55.158Z,27.12
2022-07-28T12:45:24.226Z,26.99
2022-07-28T12:47:51.802Z,26.90
2022-07-28T12:50:20.615Z,26.97
2022-07-28T12:53:03.394Z,26.89
2022-07-28T12:55:32.227Z,27.20
2022-07-28T12:58:00.325Z,27.33
2022-07-28T13:00:32.069Z,27.60
2022-07-28T13:03:01.356Z,27.68
2022-07-28T13:05:54.526Z,27.79
2022-07-28T13:08:22.485Z,27.85
2022-07-28T13:10:52.339Z,27.97
2022-07-28T13:13:24.629Z,27.93
2022-07-28T13:16:15.967Z,27.92
2022-07-28T13:18:46.452Z,27.90
2022-07-28T13:21:38.263Z,27.95
2022-07-28T13:24:06.622Z,27.81
2022-07-28T13:26:34.214Z,28.01
2022-07-28T13:29:02.103Z,28.20
2022-07-28T13:31:33.556Z,28.16
2022-07-28T13:34:01.276Z,28.26
2022-07-28T13:36:29.060Z,28.19
2022-07-28T13:38:56.777Z,28.33
2022-07-28T13:41:24.496Z,28.35
2022-07-28T13:43:52.197Z,28.18
2022-07-28T13:46:20.249Z,28.39
2022-07-28T13:48:57.686Z,28.37
2022-07-28T13:51:27.328Z,28.42
2022-07-28T13:53:55.505Z,28.56
2022-07-28T13:56:24.749Z,28.53
2022-07-28T13:58:52.312Z,28.38
2022-07-28T14:01:19.928Z,28.42
2022-07-28T14:03:55.486Z,28.56
2022-07-28T14:06:26.519Z,28.52
2022-07-28T14:08:57.638Z,28.28
2022-07-28T14:11:34.544Z,28.45
2022-07-28T14:14:06.238Z,28.43
2022-07-28T14:16:34.118Z,28.48
2022-07-28T14:19:03.150Z,28.33
2022-07-28T14:21:30.764Z,28.40
2022-07-28T14:24:01.229Z,28.38
2022-07-28T14:26:36.304Z,28.34
2022-07-28T14:29:04.831Z,28.27
2022-07-28T14:31:39.418Z,28.26
2022-07-28T14:34:08.408Z,28.40
2022-07-28T14:36:36.050Z,28.53
2022-07-28T14:39:06.674Z,28.61
2022-07-28T14:41:50.136Z,28.91
2022-07-28T14:44:24.598Z,28.79
2022-07-28T14:46:54.849Z,28.52
2022-07-28T14:49:24.078Z,28.65
2022-07-28T14:51:52.034Z,28.69
2022-07-28T14:54:19.933Z,28.59
2022-07-28T14:56:47.646Z,28.66
2022-07-28T14:59:17.281Z,28.56
2022-07-28T15:01:44.924Z,28.50
2022-07-28T15:04:13.875Z,28.49
2022-07-28T15:06:43.213Z,28.41
2022-07-28T15:09:10.788Z,28.31
2022-07-28T15:11:39.663Z,28.34
2022-07-28T15:14:07.204Z,28.48
2022-07-28T15:16:34.846Z,28.39
2022-07-28T15:19:02.472Z,28.29
2022-07-28T15:21:34.343Z,28.10
2022-07-28T15:24:05.919Z,28.26
2022-07-28T15:26:33.472Z,28.36
2022-07-28T15:29:00.982Z,28.23
2022-07-28T15:31:30.281Z,28.27
2022-07-28T15:33:58.324Z,28.25
2022-07-28T15:36:26.165Z,28.02
2022-07-28T15:38:54.327Z,27.74
2022-07-28T15:41:23.180Z,27.89
2022-07-28T15:43:50.677Z,28.16
2022-07-28T15:46:18.333Z,27.94
2022-07-28T15:48:47.080Z,27.94
2022-07-28T15:51:14.690Z,28.09
2022-07-28T15:53:42.212Z,28.29
2022-07-28T15:56:09.816Z,27.95
2022-07-28T15:58:38.890Z,28.25
2022-07-28T16:01:07.319Z,28.31
2022-07-28T16:03:34.908Z,28.21
2022-07-28T16:06:02.489Z,27.92
2022-07-28T16:08:30.279Z,27.94
2022-07-28T16:10:57.967Z,27.79
2022-07-28T16:13:37.165Z,27.82
2022-07-28T16:16:09.483Z,27.66
2022-07-28T16:18:38.365Z,27.66
2022-07-28T16:21:06.858Z,27.64
2022-07-28T16:23:35.031Z,27.50
2022-07-28T16:26:09.252Z,27.40
2022-07-28T16:28:37.189Z,27.33
2022-07-28T16:31:07.521Z,27.36
2022-07-28T16:33:36.625Z,27.31
2022-07-28T16:36:04.831Z,27.33
2022-07-28T16:38:32.438Z,27.17
2022-07-28T16:41:02.437Z,27.26
2022-07-28T16:43:30.464Z,27.21
2022-07-28T16:45:58.141Z,27.18
2022-07-28T16:48:25.806Z,27.24
2022-07-28T16:50:54.917Z,27.26
2022-07-28T16:53:22.621Z,27.18
2022-07-28T16:55:50.300Z,27.17
2022-07-28T16:58:18.518Z,27.25
2022-07-28T17:00:46.089Z,27.15
2022-07-28T17:03:13.790Z,27.21
2022-07-28T17:05:41.376Z,27.28
2022-07-28T17:08:11.300Z,27.37
2022-07-28T17:10:38.895Z,27.39
2022-07-28T17:13:07.678Z,27.48
2022-07-28T17:15:37.884Z,27.42
2022-07-28T17:18:05.878Z,27.47
2022-07-28T17:20:35.162Z,27.45
2022-07-28T17:23:03.963Z,27.55
2022-07-28T17:25:59.297Z,27.48
2022-07-28T17:28:20.399Z,27.34
2022-07-28T17:30:48.094Z,27.25
2022-07-28T17:33:15.871Z,27.21
2022-07-28T17:35:43.885Z,27.20
2022-07-28T17:38:12.579Z,27.14
2022-07-28T17:40:42.929Z,27.15
2022-07-28T17:43:11.876Z,27.12
2022-07-28T17:45:39.546Z,27.09
2022-07-28T17:48:07.347Z,27.14
2022-07-28T17:50:34.863Z,27.17
2022-07-28T17:53:02.575Z,27.10
2022-07-28T17:55:55.753Z,27.10
2022-07-28T17:58:28.830Z,27.06
2022-07-28T18:00:58.719Z,26.99
2022-07-28T18:03:57.020Z,26.92
2022-07-28T18:06:25.411Z,26.89
2022-07-28T18:08:52.962Z,26.88
2022-07-28T18:11:20.681Z,26.88
2022-07-28T18:14:04.534Z,26.90
2022-07-28T18:16:33.059Z,26.84
2022-07-28T18:19:00.570Z,26.76
2022-07-28T18:21:28.125Z,26.69
2022-07-28T18:23:55.617Z,26.64
2022-07-28T18:26:23.170Z,26.67
2022-07-28T18:28:52.075Z,26.67
2022-07-28T18:31:19.628Z,26.57
2022-07-28T18:33:47.149Z,26.53
2022-07-28T18:36:14.637Z,26.50
2022-07-28T18:38:42.206Z,26.45
2022-07-28T18:41:09.676Z,26.42
2022-07-28T18:43:37.312Z,26.37
2022-07-28T18:46:06.373Z,26.19
2022-07-28T18:48:33.979Z,26.22
2022-07-28T18:51:01.569Z,26.20
2022-07-28T18:53:29.213Z,26.15
2022-07-28T18:55:56.750Z,26.11
2022-07-28T18:58:24.331Z,26.06
2022-07-28T19:00:51.854Z,25.98
2022-07-28T19:03:20.736Z,25.94
2022-07-28T19:05:48.304Z,25.92
2022-07-28T19:08:15.827Z,25.84
2022-07-28T19:10:44.951Z,25.87
2022-07-28T19:13:13.207Z,25.83
2022-07-28T19:15:41.111Z,25.84
2022-07-28T19:18:11.642Z,25.83
2022-07-28T19:20:41.226Z,25.81
2022-07-28T19:23:08.689Z,25.77
2022-07-28T19:25:37.615Z,25.63
2022-07-28T19:28:05.367Z,25.53
2022-07-28T19:30:33.141Z,25.48
2022-07-28T19:33:00.959Z,25.41
2022-07-28T19:35:28.477Z,25.37
2022-07-28T19:37:59.708Z,25.36
2022-07-28T19:40:29.556Z,25.24
2022-07-28T19:42:57.429Z,25.16
2022-07-28T19:45:25.188Z,25.10
2022-07-28T19:47:54.450Z,25.00
2022-07-28T19:50:22.011Z,24.96
2022-07-28T19:52:49.936Z,24.91
2022-07-28T19:55:19.040Z,24.86
2022-07-28T19:57:47.291Z,24.82
2022-07-28T20:00:17.326Z,24.83
2022-07-28T20:02:45.765Z,24.80
2022-07-28T20:05:13.676Z,24.75
2022-07-28T20:07:41.212Z,24.67
2022-07-28T20:10:09.474Z,24.73
2022-07-28T20:12:38.462Z,24.77
2022-07-28T20:15:06.617Z,24.69
2022-07-28T20:17:41.190Z,24.66
2022-07-28T20:20:11.651Z,24.68
2022-07-28T20:22:39.899Z,24.56
2022-07-28T20:25:09.243Z,24.56
2022-07-28T20:27:40.611Z,24.53
2022-07-28T20:30:09.605Z,24.49
2022-07-28T20:32:37.773Z,24.44
2022-07-28T20:35:06.353Z,24.49
2022-07-28T20:37:36.620Z,24.42
2022-07-28T20:40:06.122Z,24.38
2022-07-28T20:42:33.688Z,24.35
2022-07-28T20:45:02.543Z,24.29
2022-07-28T20:47:32.495Z,24.29
2022-07-28T20:50:00.198Z,24.23
2022-07-28T20:52:27.776Z,24.17
2022-07-28T20:54:55.464Z,24.18
2022-07-28T20:57:23.097Z,24.13
2022-07-28T20:59:52.104Z,24.05
2022-07-28T21:02:21.414Z,24.08
2022-07-28T21:04:50.526Z,24.03
2022-07-28T21:07:59.452Z,24.03
2022-07-28T21:10:07.093Z,23.91
2022-07-28T21:12:36.441Z,23.88
2022-07-28T21:15:04.152Z,23.90
2022-07-28T21:17:33.064Z,23.84
2022-07-28T21:20:00.556Z,23.81
2022-07-28T21:22:28.474Z,23.85
2022-07-28T21:24:56.188Z,23.79
2022-07-28T21:27:24.747Z,23.77
2022-07-28T21:32:17.913Z,23.78
2022-07-28T21:34:47.018Z,23.71
2022-07-28T21:37:14.885Z,23.74
2022-07-28T21:39:42.792Z,23.67
2022-07-28T21:42:10.375Z,23.63
2022-07-28T21:44:38.267Z,23.66
2022-07-28T21:47:06.127Z,23.66
2022-07-28T21:49:33.695Z,23.58
2022-07-28T21:52:02.684Z,23.60
2022-07-28T21:54:30.236Z,23.53
2022-07-28T21:56:58.177Z,23.46
2022-07-28T21:59:25.744Z,23.46
2022-07-28T22:01:53.410Z,23.49
2022-07-28T22:04:21.535Z,23.35
2022-07-28T22:06:49.425Z,23.38
2022-07-28T22:09:18.312Z,23.35
2022-07-28T22:11:46.114Z,23.22
2022-07-28T22:14:14.111Z,23.20
2022-07-28T22:16:41.899Z,23.19
2022-07-28T22:19:11.755Z,23.16
2022-07-28T22:21:39.493Z,23.10
2022-07-28T22:24:08.152Z,23.11
2022-07-28T22:26:37.115Z,23.06
2022-07-28T22:29:04.752Z,23.08
2022-07-28T22:31:33.712Z,23.21
2022-07-28T22:34:01.239Z,23.21
2022-07-28T22:36:28.905Z,23.05
2022-07-28T22:38:56.632Z,23.02
2022-07-28T22:41:24.231Z,22.98
2022-07-28T22:43:53.170Z,22.89
2022-07-28T22:46:20.774Z,22.84
2022-07-28T22:48:48.445Z,22.83
2022-07-28T22:51:16.725Z,22.71
2022-07-28T22:53:50.242Z,22.71
2022-07-28T22:56:20.693Z,22.70
2022-07-28T22:59:00.574Z,22.58
2022-07-28T23:01:28.288Z,22.64
2022-07-28T23:03:56.154Z,22.63
2022-07-28T23:06:23.995Z,22.59
2022-07-28T23:08:51.572Z,22.51
2022-07-28T23:11:19.389Z,22.52
2022-07-28T23:13:47.168Z,22.52
2022-07-28T23:16:16.979Z,22.46
2022-07-28T23:18:45.451Z,22.42
2022-07-28T23:21:13.221Z,22.47
2022-07-28T23:23:40.859Z,22.40
2022-07-28T23:26:08.429Z,22.39
2022-07-28T23:28:37.135Z,22.28
2022-07-28T23:31:05.180Z,22.22
2022-07-28T23:33:56.372Z,22.22
2022-07-28T23:36:26.817Z,22.21
2022-07-28T23:38:56.054Z,22.14
2022-07-28T23:41:23.705Z,22.20
2022-07-28T23:43:51.237Z,22.19
2022-07-28T23:46:18.911Z,22.17
2022-07-28T23:48:47.984Z,22.14
2022-07-28T23:51:15.694Z,22.13
2022-07-28T23:53:43.415Z,22.18
2022-07-28T23:56:11.141Z,22.15
2022-07-28T23:58:38.630Z,22.10
